Time;durP1;ratioP1;P1;durP2;ratioP2;P2;SDS_P1;SDS_P2;PMS_P1;PMS_P2;Temp;Humidity;BMP_temperature;BMP_pressure;BME280_temperature;BME280_humidity;BME280_pressure;Samples;Min_cycle;Max_cycle;Signal;HPM_P1;HPM_P2
2023/09/17 00:01:10;;;;;;;2.90;2.60;;;;;;;22.77;64.91;100413.91;4537955;28;20469;-63
2023/09/17 00:03:20;;;;;;;2.88;2.47;;;;;;;22.75;64.59;100413.44;4538612;28;20095;-63
2023/09/17 00:05:32;;;;;;;3.42;2.72;;;;;;;22.74;64.77;100411.78;4519720;28;20991;-63
2023/09/17 00:07:43;;;;;;;3.78;2.60;;;;;;;22.74;64.82;100421.25;4541215;28;20916;-63
2023/09/17 00:09:53;;;;;;;2.50;2.30;;;;;;;22.74;64.73;100408.91;4543224;28;20041;-63
2023/09/17 00:12:04;;;;;;;2.80;2.50;;;;;;;22.76;64.63;100420.84;4540290;28;20036;-67
2023/09/17 00:14:15;;;;;;;2.58;2.38;;;;;;;22.72;64.47;100412.16;4538243;28;21366;-63
2023/09/17 00:16:31;;;;;;;3.70;2.75;;;;;;;22.75;64.83;100419.19;4540243;28;20033;-63
2023/09/17 00:18:41;;;;;;;2.70;2.50;;;;;;;22.71;64.48;100401.03;4539034;28;20038;-63
2023/09/17 00:20:51;;;;;;;2.70;2.40;;;;;;;22.73;64.44;100404.38;4538381;28;20033;-63
2023/09/17 00:23:03;;;;;;;2.60;2.40;;;;;;;22.76;64.32;100403.59;4515500;28;20026;-62
2023/09/17 00:25:13;;;;;;;2.60;2.40;;;;;;;22.75;64.52;100407.69;4525194;28;20057;-63
2023/09/17 00:27:24;;;;;;;2.50;2.30;;;;;;;22.74;64.27;100397.41;4521543;28;20577;-63
2023/09/17 00:29:34;;;;;;;2.70;2.50;;;;;;;22.74;64.24;100401.09;4525228;28;20125;-63
2023/09/17 00:31:45;;;;;;;2.78;2.45;;;;;;;22.74;64.21;100401.09;4520819;28;20482;-63
2023/09/17 00:33:55;;;;;;;3.15;2.42;;;;;;;22.75;64.40;100399.06;4539158;28;20448;-63
2023/09/17 00:36:06;;;;;;;2.47;2.25;;;;;;;22.73;64.02;100392.84;4538199;28;20406;-63
2023/09/17 00:38:16;;;;;;;2.60;2.33;;;;;;;22.73;64.17;100398.59;4528603;28;20041;-63
2023/09/17 00:40:31;;;;;;;3.00;2.30;;;;;;;22.76;64.14;100403.59;4540241;28;20033;-63
2023/09/17 00:42:42;;;;;;;2.60;2.38;;;;;;;22.76;64.26;100400.72;4539003;28;20099;-63
2023/09/17 00:44:52;;;;;;;2.67;2.47;;;;;;;22.73;64.25;100404.38;4529967;28;20521;-63
2023/09/17 00:47:04;;;;;;;2.75;2.53;;;;;;;22.72;64.27;100396.97;4537884;28;20038;-63
2023/09/17 00:49:15;;;;;;;2.60;2.40;;;;;;;22.71;64.07;100401.03;4539839;28;20033;-63
2023/09/17 00:51:26;;;;;;;2.40;2.20;;;;;;;22.72;63.93;100397.78;4538219;28;20611;-63
2023/09/17 00:53:37;;;;;;;2.50;2.30;;;;;;;22.72;63.67;100385.44;4536533;28;20029;-63
2023/09/17 00:55:47;;;;;;;2.60;2.40;;;;;;;22.72;63.98;100391.19;4535500;28;20037;-63
2023/09/17 00:57:59;;;;;;;2.55;2.35;;;;;;;22.71;64.00;100384.59;4538095;28;20127;-63
2023/09/17 01:00:11;;;;;;;2.50;2.22;;;;;;;22.70;64.20;100393.63;4519353;28;20948;-63
2023/09/17 01:02:24;;;;;;;3.10;2.60;;;;;;;22.72;63.81;100392.00;4539384;28;21633;-63
2023/09/17 01:04:38;;;;;;;2.65;2.28;;;;;;;22.73;63.99;100389.97;4529188;28;20037;-63
2023/09/17 01:06:51;;;;;;;3.60;2.50;;;;;;;22.71;64.05;100386.66;4537395;28;20123;-63
2023/09/17 01:09:02;;;;;;;2.80;2.30;;;;;;;22.69;63.76;100386.22;4527116;28;20636;-63
2023/09/17 01:11:13;;;;;;;2.85;2.40;;;;;;;22.73;63.87;100387.94;4520153;28;20041;-63
2023/09/17 01:13:24;;;;;;;2.35;2.15;;;;;;;22.70;64.07;100379.25;4508933;28;20033;-63
2023/09/17 01:15:35;;;;;;;2.60;2.40;;;;;;;22.71;64.07;100380.88;4538257;28;20483;-63
2023/09/17 01:17:45;;;;;;;3.15;2.70;;;;;;;22.70;63.81;100376.38;4503484;28;20038;-63
2023/09/17 01:19:56;;;;;;;3.17;2.50;;;;;;;22.73;63.61;100375.59;4513106;28;20513;-63
2023/09/17 01:22:16;;;;;;;2.53;2.33;;;;;;;22.73;63.86;100370.69;4521942;28;20037;-63
2023/09/17 01:24:30;;;;;;;2.28;2.08;;;;;;;22.72;63.63;100371.06;4537010;28;20963;-63
2023/09/17 01:26:44;;;;;;;2.70;2.45;;;;;;;22.58;63.76;100357.25;4529818;28;20022;-63
2023/09/17 01:28:56;;;;;;;2.75;2.20;;;;;;;22.65;63.48;100368.06;4538804;28;20033;-63
2023/09/17 01:31:09;;;;;;;3.50;2.38;;;;;;;22.66;63.55;100364.78;4536808;28;20034;-63
2023/09/17 01:33:19;;;;;;;2.70;2.10;;;;;;;22.67;63.49;100372.22;4537145;28;20141;-63
2023/09/17 01:35:33;;;;;;;2.65;2.45;;;;;;;22.72;63.48;100379.69;4535388;28;20121;-63
2023/09/17 01:37:52;;;;;;;2.30;2.10;;;;;;;22.70;63.44;100364.84;4539014;28;20041;-63
2023/09/17 01:40:07;;;;;;;2.90;2.00;;;;;;;22.69;63.15;100377.59;4520331;28;20037;-63
2023/09/17 01:42:19;;;;;;;2.58;2.28;;;;;;;22.66;63.14;100375.50;4520073;28;20819;-63
2023/09/17 01:44:30;;;;;;;2.55;2.30;;;;;;;22.67;62.65;100374.28;4538363;28;20075;-63
2023/09/17 01:46:43;;;;;;;2.20;2.00;;;;;;;22.67;62.84;100372.22;4526749;28;20899;-63
2023/09/17 01:48:54;;;;;;;2.65;2.25;;;;;;;22.73;62.65;100381.34;4538139;28;20868;-63
2023/09/17 01:51:07;;;;;;;2.83;2.30;;;;;;;22.71;62.35;100378.84;4522954;28;20029;-63
2023/09/17 01:53:18;;;;;;;2.53;2.33;;;;;;;22.66;62.42;100370.56;4536610;28;20888;-63
2023/09/17 01:55:29;;;;;;;2.35;2.15;;;;;;;22.63;62.52;100365.56;4538701;28;20036;-63
2023/09/17 01:57:41;;;;;;;2.30;2.10;;;;;;;22.69;62.46;100380.47;4518975;28;20037;-63
2023/09/17 01:59:51;;;;;;;2.20;2.00;;;;;;;22.70;62.16;100376.38;4525163;28;21007;-63
2023/09/17 02:02:02;;;;;;;2.40;2.20;;;;;;;22.68;62.26;100373.03;4518843;28;20186;-65
2023/09/17 02:04:13;;;;;;;2.70;2.50;;;;;;;22.71;62.26;100375.13;4508373;28;20050;-63
2023/09/17 02:06:23;;;;;;;2.60;2.40;;;;;;;22.71;62.33;100378.00;4512367;28;20471;-63
2023/09/17 02:08:36;;;;;;;2.75;2.13;;;;;;;22.70;62.10;100382.13;4518630;28;20068;-63
2023/09/17 02:10:46;;;;;;;2.40;2.17;;;;;;;22.69;61.99;100374.72;4538242;28;20799;-63
2023/09/17 02:12:57;;;;;;;2.60;2.40;;;;;;;22.68;62.15;100371.00;4536015;28;20039;-63
2023/09/17 02:15:11;;;;;;;3.10;2.30;;;;;;;22.69;61.99;100363.22;4519524;28;20045;-63
2023/09/17 02:17:21;;;;;;;2.67;2.47;;;;;;;22.69;62.12;100369.78;4536152;28;20088;-62
2023/09/17 02:19:32;;;;;;;2.30;2.08;;;;;;;22.69;61.95;100364.00;4536173;28;20071;-63
2023/09/17 02:21:42;;;;;;;2.70;2.40;;;;;;;22.68;62.11;100368.13;4537694;28;20040;-63
2023/09/17 02:23:54;;;;;;;2.67;2.33;;;;;;;22.68;62.30;100371.00;4525219;28;20064;-64
2023/09/17 02:26:05;;;;;;;2.30;2.10;;;;;;;22.67;62.15;100374.28;4538330;28;20072;-63
2023/09/17 02:28:15;;;;;;;2.78;2.53;;;;;;;22.66;62.08;100358.22;4537407;28;20462;-63
2023/09/17 02:30:28;;;;;;;2.50;2.30;;;;;;;22.68;61.51;100373.03;4540600;28;20217;-63
2023/09/17 02:32:38;;;;;;;2.63;2.28;;;;;;;22.67;61.93;100365.63;4534163;28;20081;-63
2023/09/17 02:34:49;;;;;;;3.50;2.80;;;;;;;22.67;62.29;100357.84;4519118;28;20116;-63
2023/09/17 02:36:59;;;;;;;3.17;2.88;;;;;;;22.68;62.18;100352.91;4537380;28;20029;-63
2023/09/17 02:39:11;;;;;;;3.33;3.03;;;;;;;22.65;62.32;100350.81;4537019;28;20041;-63
2023/09/17 02:41:22;;;;;;;3.42;3.13;;;;;;;22.69;62.12;100352.50;4539328;28;20088;-63
2023/09/17 02:43:36;;;;;;;3.88;3.35;;;;;;;22.69;62.27;100357.47;4537848;28;20049;-63
2023/09/17 02:45:46;;;;;;;4.13;3.13;;;;;;;22.66;62.39;100349.59;4519093;28;20080;-63
2023/09/17 02:47:56;;;;;;;4.10;3.70;;;;;;;22.67;62.26;100348.38;4540113;28;20547;-63
2023/09/17 02:50:09;;;;;;;3.55;3.25;;;;;;;22.57;62.39;100332.59;4537249;28;20041;-63
2023/09/17 02:52:20;;;;;;;3.70;3.40;;;;;;;22.67;62.41;100348.38;4512438;28;21624;-64
2023/09/17 02:54:30;;;;;;;3.90;3.40;;;;;;;22.68;62.45;100347.16;4535818;28;20026;-64
2023/09/17 02:56:42;;;;;;;4.03;3.40;;;;;;;22.69;61.83;100345.94;4539949;28;20033;-64
2023/09/17 02:58:52;;;;;;;3.95;3.17;;;;;;;22.68;62.26;100341.38;4540763;28;20033;-64
2023/09/17 03:01:14;;;;;;;3.90;3.40;;;;;;;22.66;61.71;100346.72;4522040;28;20042;-63
2023/09/17 03:03:25;;;;;;;3.60;3.30;;;;;;;22.67;61.64;100348.38;4532140;28;20106;-63
2023/09/17 03:05:35;;;;;;;3.95;3.55;;;;;;;22.68;61.82;100344.25;4542640;28;20036;-63
2023/09/17 03:07:46;;;;;;;4.07;3.60;;;;;;;22.67;61.92;100342.63;4529872;28;20033;-63
2023/09/17 03:09:59;;;;;;;3.88;3.47;;;;;;;22.65;62.04;100343.00;4537176;28;20087;-63
2023/09/17 03:12:11;;;;;;;3.97;3.38;;;;;;;22.65;61.97;100339.28;4527108;28;20943;-63
2023/09/17 03:14:22;;;;;;;3.70;3.30;;;;;;;22.67;61.69;100342.63;4523137;28;20862;-63
2023/09/17 03:16:33;;;;;;;3.70;3.33;;;;;;;22.66;61.66;100343.84;4526832;28;20025;-64
2023/09/17 03:18:43;;;;;;;3.90;3.60;;;;;;;22.66;61.98;100341.78;4535907;28;20038;-63
2023/09/17 03:20:54;;;;;;;4.18;3.78;;;;;;;22.66;61.89;100340.97;4531695;28;20497;-63
2023/09/17 03:23:04;;;;;;;4.00;3.33;;;;;;;22.65;62.10;100345.03;4541371;28;20045;-64
2023/09/17 03:25:18;;;;;;;3.65;3.35;;;;;;;22.63;61.85;100333.94;4536474;28;20393;-64
2023/09/17 03:27:32;;;;;;;3.80;3.40;;;;;;;22.65;61.91;100336.41;4528123;28;20773;-64
2023/09/17 03:29:42;;;;;;;3.78;3.35;;;;;;;22.66;62.03;100336.03;4538960;28;20847;-64
2023/09/17 03:31:53;;;;;;;3.90;3.17;;;;;;;22.65;62.04;100339.28;4541324;28;20424;-64
2023/09/17 03:34:04;;;;;;;4.18;3.38;;;;;;;22.65;61.84;100340.13;4522237;28;20084;-64
2023/09/17 03:36:14;;;;;;;3.92;3.38;;;;;;;22.67;61.92;100339.75;4541823;28;20046;-64
2023/09/17 03:38:25;;;;;;;3.42;3.13;;;;;;;22.66;61.67;100346.72;4540353;28;20075;-64
2023/09/17 03:40:36;;;;;;;4.18;3.60;;;;;;;22.67;62.00;100342.63;4529447;28;20611;-64
2023/09/17 03:42:47;;;;;;;3.50;3.20;;;;;;;22.63;61.96;100336.81;4538476;28;20111;-64
2023/09/17 03:44:57;;;;;;;3.90;3.50;;;;;;;22.63;61.95;100333.94;4538259;28;20099;-64
2023/09/17 03:47:08;;;;;;;3.60;3.30;;;;;;;22.65;62.08;100339.28;4530512;28;20029;-64
2023/09/17 03:49:23;;;;;;;3.88;3.40;;;;;;;22.66;61.87;100338.91;4531884;28;20045;-64
2023/09/17 03:51:34;;;;;;;3.60;3.20;;;;;;;22.65;61.79;100333.53;4533056;28;20052;-64
2023/09/17 03:53:45;;;;;;;3.55;3.20;;;;;;;22.62;62.02;100331.44;4520528;28;20033;-64
2023/09/17 03:55:56;;;;;;;3.83;3.42;;;;;;;22.58;62.23;100327.69;4520718;28;20037;-64
2023/09/17 03:58:08;;;;;;;3.33;3.03;;;;;;;22.65;61.84;100339.28;4541178;28;20584;-64
2023/09/17 04:00:23;;;;;;;4.07;3.50;;;;;;;22.61;61.77;100324.03;4541632;28;20059;-64
2023/09/17 04:02:35;;;;;;;3.90;3.03;;;;;;;22.62;61.96;100329.41;4531513;28;20130;-64
2023/09/17 04:04:47;;;;;;;3.60;3.30;;;;;;;22.65;62.21;100328.63;4519786;28;20058;-66
2023/09/17 04:06:58;;;;;;;3.50;3.20;;;;;;;22.59;61.80;100324.44;4536077;28;20144;-64
2023/09/17 04:09:09;;;;;;;3.45;3.15;;;;;;;22.52;62.11;100311.97;4539097;28;20037;-64
2023/09/17 04:11:20;;;;;;;3.20;2.90;;;;;;;22.59;62.07;100324.44;4541381;28;20064;-64
2023/09/17 04:13:31;;;;;;;3.75;3.30;;;;;;;22.64;61.94;100329.84;4539127;28;20021;-65
2023/09/17 04:15:42;;;;;;;3.33;3.00;;;;;;;22.62;62.01;100323.66;4536197;28;20126;-64
2023/09/17 04:17:52;;;;;;;3.45;3.15;;;;;;;22.59;62.29;100317.84;4538369;28;20032;-64
2023/09/17 04:20:05;;;;;;;3.13;2.83;;;;;;;22.66;62.14;100329.47;4540325;28;20045;-64
2023/09/17 04:22:15;;;;;;;3.70;2.97;;;;;;;22.61;62.28;100321.16;4529345;28;20033;-64
2023/09/17 04:24:26;;;;;;;3.33;3.03;;;;;;;22.65;62.34;100322.88;4522776;28;20584;-64
2023/09/17 04:26:37;;;;;;;3.90;2.95;;;;;;;22.64;62.17;100317.50;4528874;28;20114;-64
2023/09/17 04:28:47;;;;;;;2.75;2.53;;;;;;;22.60;62.38;100303.06;4526189;28;20119;-64
2023/09/17 04:30:58;;;;;;;2.70;2.50;;;;;;;22.65;62.26;100310.53;4540955;28;20064;-64
2023/09/17 04:33:08;;;;;;;2.97;2.67;;;;;;;22.64;62.20;100311.75;4521283;28;20033;-65
2023/09/17 04:35:19;;;;;;;3.22;2.92;;;;;;;22.64;62.15;100314.63;4520932;28;20040;-64
2023/09/17 04:37:30;;;;;;;3.17;2.88;;;;;;;22.63;62.35;100312.97;4526250;28;20480;-64
2023/09/17 04:39:42;;;;;;;2.90;2.70;;;;;;;22.52;62.26;100298.41;4511756;28;20134;-64
2023/09/17 04:41:53;;;;;;;2.53;2.33;;;;;;;22.61;62.21;100304.72;4527676;28;20503;-64
2023/09/17 04:44:07;;;;;;;2.53;2.33;;;;;;;22.63;62.29;100304.34;4528131;28;20800;-64
2023/09/17 04:46:18;;;;;;;2.85;2.40;;;;;;;22.64;61.98;100303.13;4528791;28;21006;-63
2023/09/17 04:48:34;;;;;;;2.70;2.50;;;;;;;22.62;61.97;100299.78;4520304;28;20039;-63
2023/09/17 04:50:46;;;;;;;2.80;2.50;;;;;;;22.62;62.07;100297.75;4521203;28;20043;-63
2023/09/17 04:52:57;;;;;;;2.83;2.40;;;;;;;22.60;61.89;100297.31;4510822;28;20796;-64
2023/09/17 04:55:08;;;;;;;2.75;2.47;;;;;;;22.60;61.88;100293.59;4537992;28;20119;-63
2023/09/17 04:57:18;;;;;;;2.50;2.30;;;;;;;22.62;61.92;100297.75;4518749;28;20083;-63
2023/09/17 04:59:29;;;;;;;2.58;2.38;;;;;;;22.63;61.80;100299.41;4539233;28;20025;-63
2023/09/17 05:01:40;;;;;;;2.60;2.40;;;;;;;22.61;62.23;100289.50;4514479;28;20121;-63
2023/09/17 05:03:51;;;;;;;2.97;2.50;;;;;;;22.63;62.17;100302.28;4521098;28;20872;-64
2023/09/17 05:06:02;;;;;;;3.70;2.40;;;;;;;22.63;62.19;100295.72;4522172;28;20034;-63
2023/09/17 05:08:16;;;;;;;3.67;2.33;;;;;;;22.62;62.19;100294.88;4511808;28;20520;-64
2023/09/17 05:10:28;;;;;;;2.50;2.30;;;;;;;22.63;62.12;100298.59;4519059;28;20026;-63
2023/09/17 05:12:38;;;;;;;2.50;2.30;;;;;;;22.60;62.21;100302.22;4527861;28;20410;-63
2023/09/17 05:14:49;;;;;;;3.03;2.38;;;;;;;22.64;62.16;100306.00;4526749;28;20096;-64
2023/09/17 05:16:59;;;;;;;2.60;2.40;;;;;;;22.63;62.18;100302.28;4537802;28;20122;-63
2023/09/17 05:19:10;;;;;;;3.40;2.45;;;;;;;22.63;62.23;100308.03;4530167;28;20632;-63
2023/09/17 05:21:21;;;;;;;2.35;2.00;;;;;;;22.61;62.12;100301.03;4513054;28;20044;-64
2023/09/17 05:23:32;;;;;;;2.55;2.30;;;;;;;22.63;61.94;100312.97;4524096;28;20018;-64
2023/09/17 05:25:45;;;;;;;2.75;2.33;;;;;;;22.63;62.04;100315.84;4512982;28;20865;-63
2023/09/17 05:27:57;;;;;;;2.47;2.20;;;;;;;22.62;62.33;100322.81;4535730;28;20032;-63
2023/09/17 05:30:08;;;;;;;2.50;2.30;;;;;;;22.63;62.52;100319.53;4534941;28;20032;-63
2023/09/17 05:32:18;;;;;;;2.45;2.22;;;;;;;22.62;62.44;100326.53;4540301;28;20132;-63
2023/09/17 05:34:29;;;;;;;2.33;2.13;;;;;;;22.58;62.43;100319.88;4536203;28;20032;-64
2023/09/17 05:36:40;;;;;;;2.20;2.00;;;;;;;22.64;62.47;100331.88;4524181;28;20072;-64
2023/09/17 05:38:50;;;;;;;2.60;2.30;;;;;;;22.51;62.61;100307.41;4533826;28;20151;-63
2023/09/17 05:41:01;;;;;;;2.45;2.10;;;;;;;22.58;62.54;100322.75;4540027;28;20033;-64
2023/09/17 05:43:11;;;;;;;2.53;2.33;;;;;;;22.55;62.77;100323.53;4521614;28;20041;-64
2023/09/17 05:45:22;;;;;;;2.20;2.00;;;;;;;22.48;62.80;100308.19;4529755;28;20132;-64
2023/09/17 05:47:33;;;;;;;2.28;2.08;;;;;;;22.60;62.99;100333.88;4529604;28;20041;-64
2023/09/17 05:49:44;;;;;;;2.40;2.00;;;;;;;22.61;62.94;100335.53;4534014;28;20081;-64
2023/09/17 05:51:56;;;;;;;2.65;2.08;;;;;;;22.61;62.99;100332.66;4524016;28;20091;-64
2023/09/17 05:54:06;;;;;;;2.28;2.08;;;;;;;22.50;62.83;100325.88;4518944;28;20033;-64
2023/09/17 05:56:17;;;;;;;2.15;1.95;;;;;;;22.63;63.00;100341.75;4519905;28;20048;-64
2023/09/17 05:58:28;;;;;;;2.75;2.10;;;;;;;22.51;62.99;100331.25;4536076;28;20504;-64
2023/09/17 06:00:38;;;;;;;2.42;2.20;;;;;;;22.61;62.94;100339.22;4536757;28;20044;-65
2023/09/17 06:02:49;;;;;;;2.58;2.30;;;;;;;22.58;63.38;100340.00;4534374;28;20476;-64
2023/09/17 06:05:01;;;;;;;2.30;2.10;;;;;;;22.63;63.23;100353.25;4538719;28;20592;-64
2023/09/17 06:07:12;;;;;;;2.20;2.00;;;;;;;22.62;62.99;100349.53;4524754;28;20429;-64
2023/09/17 06:09:22;;;;;;;2.30;2.10;;;;;;;22.62;63.37;100346.66;4537718;28;20046;-64
2023/09/17 06:11:32;;;;;;;2.42;2.22;;;;;;;22.62;63.18;100346.66;4537531;28;20037;-64
2023/09/17 06:13:43;;;;;;;2.10;1.90;;;;;;;22.62;63.32;100348.69;4513971;28;20125;-64
2023/09/17 06:15:54;;;;;;;2.33;2.10;;;;;;;22.61;63.16;100342.09;4536786;28;20029;-64
2023/09/17 06:18:04;;;;;;;2.25;2.00;;;;;;;22.65;63.21;100345.03;4525622;28;20084;-64
2023/09/17 06:20:15;;;;;;;2.33;2.08;;;;;;;22.61;63.09;100339.22;4519277;28;20037;-64
2023/09/17 06:22:25;;;;;;;2.38;2.10;;;;;;;22.60;63.09;100342.50;4536358;28;20516;-64
2023/09/17 06:24:36;;;;;;;2.20;2.00;;;;;;;22.62;63.27;100351.56;4515595;28;20050;-64
2023/09/17 06:26:47;;;;;;;2.20;2.00;;;;;;;22.62;63.00;100354.44;4530921;28;20071;-64
2023/09/17 06:28:58;;;;;;;2.53;2.33;;;;;;;22.62;63.00;100357.34;4521856;28;20029;-64
2023/09/17 06:31:08;;;;;;;2.30;2.10;;;;;;;22.59;63.27;100358.94;4539391;28;20509;-64
2023/09/17 06:33:19;;;;;;;2.40;2.20;;;;;;;22.63;63.13;100359.81;4521184;28;20029;-64
2023/09/17 06:35:29;;;;;;;2.30;2.10;;;;;;;22.60;63.09;100356.88;4522133;28;20052;-64
2023/09/17 06:37:40;;;;;;;2.22;2.03;;;;;;;22.63;63.26;100365.56;4537824;28;20440;-65
2023/09/17 06:39:51;;;;;;;2.25;1.90;;;;;;;22.61;63.71;100355.69;4519435;28;20028;-64
2023/09/17 06:42:02;;;;;;;2.10;1.90;;;;;;;22.55;63.51;100348.59;4526980;28;20879;-65
2023/09/17 06:44:12;;;;;;;2.30;2.10;;;;;;;22.63;63.73;100359.00;4537135;28;20120;-65
2023/09/17 06:46:24;;;;;;;2.00;1.80;;;;;;;22.62;63.84;100368.84;4527053;28;20081;-65
2023/09/17 06:48:34;;;;;;;2.33;2.13;;;;;;;22.59;64.11;100364.69;4541179;28;20080;-65
2023/09/17 06:50:45;;;;;;;2.50;2.08;;;;;;;22.62;64.14;100357.34;4539398;28;20048;-65
2023/09/17 06:52:55;;;;;;;2.95;2.40;;;;;;;22.61;64.29;100352.81;4520854;28;20025;-65
2023/09/17 06:55:06;;;;;;;2.20;2.00;;;;;;;22.63;64.15;100347.50;4531290;28;20040;-65
2023/09/17 06:57:16;;;;;;;2.15;1.95;;;;;;;22.56;64.22;100341.63;4539902;28;20037;-64
2023/09/17 06:59:26;;;;;;;2.30;1.90;;;;;;;22.61;64.37;100347.88;4527521;28;20521;-65
2023/09/17 07:01:39;;;;;;;2.53;2.25;;;;;;;22.59;63.98;100341.69;4539843;28;20060;-65
2023/09/17 07:03:49;;;;;;;2.10;1.90;;;;;;;22.60;64.27;100342.50;4540353;28;20083;-65
2023/09/17 07:06:00;;;;;;;2.10;1.90;;;;;;;22.63;63.98;100347.50;4541725;28;20116;-65
2023/09/17 07:08:10;;;;;;;2.20;1.90;;;;;;;22.60;64.32;100342.50;4539796;28;20477;-65
2023/09/17 07:10:21;;;;;;;2.10;1.90;;;;;;;22.61;64.42;100341.28;4538715;28;20036;-64
2023/09/17 07:12:37;;;;;;;2.42;1.95;;;;;;;22.63;64.00;100341.75;4540466;28;20023;-64
2023/09/17 07:14:48;;;;;;;2.25;2.05;;;;;;;22.63;64.38;100341.75;4515909;28;20543;-65
2023/09/17 07:16:58;;;;;;;2.00;1.80;;;;;;;22.62;64.13;100340.06;4512404;28;20042;-65
2023/09/17 07:19:09;;;;;;;2.00;1.80;;;;;;;22.63;64.33;100347.50;4522317;28;20022;-65
2023/09/17 07:21:20;;;;;;;2.00;1.80;;;;;;;22.63;64.48;100339.69;4539931;28;20083;-65
2023/09/17 07:23:30;;;;;;;2.13;1.80;;;;;;;22.63;64.05;100336.81;4540444;28;20033;-65
2023/09/17 07:25:40;;;;;;;1.90;1.70;;;;;;;22.61;64.10;100332.66;4539308;28;20406;-67
2023/09/17 07:27:51;;;;;;;1.85;1.75;;;;;;;22.59;64.33;100332.22;4536870;28;20098;-65
2023/09/17 07:30:02;;;;;;;1.95;1.60;;;;;;;22.64;64.64;100337.66;4539172;28;20552;-65
2023/09/17 07:32:13;;;;;;;1.73;1.63;;;;;;;22.59;64.55;100332.22;4539905;28;20808;-65
2023/09/17 07:34:24;;;;;;;2.22;1.90;;;;;;;22.50;64.67;100320.94;4536812;28;20029;-65
2023/09/17 07:36:35;;;;;;;1.85;1.70;;;;;;;22.60;64.98;100336.75;4538277;28;20115;-65
2023/09/17 07:38:45;;;;;;;2.33;1.95;;;;;;;22.62;64.89;100335.16;4538694;28;20507;-64
2023/09/17 07:40:56;;;;;;;1.88;1.67;;;;;;;22.61;64.61;100333.47;4538501;28;20144;-64
2023/09/17 07:43:06;;;;;;;1.73;1.63;;;;;;;22.57;64.64;100331.78;4507526;28;20032;-64
2023/09/17 07:45:18;;;;;;;1.73;1.60;;;;;;;22.64;64.86;100346.28;4540839;28;20059;-67
2023/09/17 07:47:29;;;;;;;1.73;1.60;;;;;;;22.49;64.88;100324.22;4539732;28;20037;-65
2023/09/17 07:49:40;;;;;;;1.83;1.73;;;;;;;22.58;65.01;100345.75;4536886;28;20033;-63
2023/09/17 07:51:50;;;;;;;1.60;1.50;;;;;;;22.57;65.28;100334.63;4540249;28;20030;-63
2023/09/17 07:54:01;;;;;;;1.70;1.60;;;;;;;22.63;65.21;100354.06;4520302;28;20111;-63
2023/09/17 07:56:11;;;;;;;1.85;1.67;;;;;;;22.63;65.28;100353.25;4520659;28;20041;-63
2023/09/17 07:58:23;;;;;;;2.25;1.90;;;;;;;22.63;65.68;100347.50;4542426;28;20119;-63
2023/09/17 08:00:33;;;;;;;2.00;1.80;;;;;;;22.60;65.63;100342.50;4541874;28;20024;-63
2023/09/17 08:02:44;;;;;;;1.75;1.65;;;;;;;22.65;65.65;100356.56;4538951;28;20124;-63
2023/09/17 08:04:54;;;;;;;2.30;1.83;;;;;;;22.63;65.76;100348.31;4539730;28;20045;-63
2023/09/17 08:07:05;;;;;;;2.00;1.80;;;;;;;22.57;66.35;100334.63;4539074;28;20067;-63
2023/09/17 08:09:16;;;;;;;2.00;1.80;;;;;;;22.65;66.24;100350.81;4523436;28;20079;-64
2023/09/17 08:11:29;;;;;;;2.20;1.77;;;;;;;22.64;66.38;100343.41;4538108;28;20112;-64
2023/09/17 08:13:40;;;;;;;1.95;1.75;;;;;;;22.63;66.25;100341.75;4521126;28;20087;-63
2023/09/17 08:15:51;;;;;;;2.00;1.70;;;;;;;22.63;66.41;100336.81;4539887;28;20208;-63
2023/09/17 08:18:01;;;;;;;1.80;1.70;;;;;;;22.60;66.34;100333.88;4540623;28;20087;-63
2023/09/17 08:20:12;;;;;;;2.10;1.70;;;;;;;22.55;66.84;100316.97;4538020;28;20504;-63
2023/09/17 08:22:22;;;;;;;2.20;2.00;;;;;;;22.66;66.88;100335.22;4537928;28;20017;-63
2023/09/17 08:24:33;;;;;;;2.10;1.90;;;;;;;22.68;67.25;100332.75;4538525;28;20057;-63
2023/09/17 08:26:43;;;;;;;1.98;1.75;;;;;;;22.53;67.11;100305.84;4537614;28;20943;-63
2023/09/17 08:29:00;;;;;;;2.42;1.92;;;;;;;22.65;67.11;100316.28;4539500;28;20201;-63
2023/09/17 08:31:11;;;;;;;2.13;1.92;;;;;;;22.68;67.50;100327.00;4527142;28;20135;-63
2023/09/17 08:33:21;;;;;;;2.13;1.90;;;;;;;22.58;66.91;100327.69;4539776;28;20041;-67
2023/09/17 08:35:32;;;;;;;2.35;2.10;;;;;;;22.62;67.23;100325.69;4537775;28;20037;-63
2023/09/17 08:37:43;;;;;;;2.10;1.90;;;;;;;22.69;67.50;100351.69;4537931;28;20112;-63
2023/09/17 08:39:53;;;;;;;2.30;2.10;;;;;;;22.64;67.57;100331.88;4523804;28;20056;-63
2023/09/17 08:42:04;;;;;;;2.30;2.10;;;;;;;22.65;67.58;100342.16;4538880;28;20047;-63
2023/09/17 08:44:17;;;;;;;3.15;1.98;;;;;;;22.69;67.57;100351.69;4537667;28;20044;-63
2023/09/17 08:46:30;;;;;;;2.38;2.10;;;;;;;22.69;67.82;100351.69;4519671;28;20115;-63
2023/09/17 08:48:40;;;;;;;2.20;2.00;;;;;;;22.68;67.60;100350.03;4537793;28;20030;-63
2023/09/17 08:50:53;;;;;;;2.63;2.10;;;;;;;22.68;67.24;100355.78;4537137;28;20037;-63
2023/09/17 08:53:06;;;;;;;2.63;2.30;;;;;;;22.67;67.43;100342.63;4538619;28;20796;-63
2023/09/17 08:55:17;;;;;;;2.22;2.03;;;;;;;22.68;67.61;100352.91;4539843;28;20087;-63
2023/09/17 08:57:32;;;;;;;2.30;2.10;;;;;;;22.70;67.71;100359.09;4521041;28;20093;-63
2023/09/17 08:59:48;;;;;;;2.15;1.95;;;;;;;22.65;68.30;100345.03;4538747;28;20045;-64
2023/09/17 09:02:03;;;;;;;2.47;2.17;;;;;;;22.68;68.97;100344.25;4538333;28;20505;-63
2023/09/17 09:04:14;;;;;;;2.10;1.90;;;;;;;22.65;68.69;100345.88;4539220;28;20099;-63
2023/09/17 09:06:27;;;;;;;2.50;2.30;;;;;;;22.66;68.95;100344.66;4536190;28;20037;-65
2023/09/17 09:08:42;;;;;;;2.25;2.00;;;;;;;22.71;68.96;100346.38;4536632;28;20095;-63
2023/09/17 09:10:52;;;;;;;2.30;2.10;;;;;;;22.68;69.09;100350.84;4538165;28;20828;-63
2023/09/17 09:13:03;;;;;;;2.25;2.00;;;;;;;22.68;69.25;100347.16;4537408;28;20029;-63
2023/09/17 09:15:14;;;;;;;2.13;1.92;;;;;;;22.70;69.06;100351.31;4523598;28;20118;-63
2023/09/17 09:17:26;;;;;;;2.30;2.10;;;;;;;22.70;69.04;100350.47;4537718;28;20156;-63
2023/09/17 09:19:37;;;;;;;2.10;1.90;;;;;;;22.63;69.32;100336.00;4537391;28;20572;-63
2023/09/17 09:21:47;;;;;;;2.00;1.80;;;;;;;22.66;69.31;100346.72;4537729;28;20086;-63
2023/09/17 09:23:58;;;;;;;2.22;1.90;;;;;;;22.69;68.41;100354.56;4536565;28;20026;-63
2023/09/17 09:26:08;;;;;;;2.00;1.80;;;;;;;22.61;68.79;100332.66;4538493;28;20059;-63
2023/09/17 09:28:19;;;;;;;3.08;1.70;;;;;;;22.71;68.61;100343.50;4538846;28;20021;-63
2023/09/17 09:30:29;;;;;;;1.98;1.80;;;;;;;22.71;69.46;100352.13;4538802;28;21064;-63
2023/09/17 09:32:40;;;;;;;1.80;1.70;;;;;;;22.71;69.95;100346.38;4539090;28;20029;-63
2023/09/17 09:34:51;;;;;;;1.60;1.50;;;;;;;22.67;68.99;100351.25;4538205;28;20041;-63
2023/09/17 09:37:04;;;;;;;2.17;1.98;;;;;;;22.69;69.40;100351.69;4537760;28;20358;-63
2023/09/17 09:39:16;;;;;;;2.15;1.80;;;;;;;22.71;68.96;100349.25;4539240;28;20045;-63
2023/09/17 09:41:29;;;;;;;2.50;1.92;;;;;;;22.66;68.78;100338.91;4537830;28;20029;-63
2023/09/17 09:43:42;;;;;;;2.17;1.92;;;;;;;22.67;68.21;100342.63;4538844;28;20026;-63
2023/09/17 09:45:52;;;;;;;2.38;2.03;;;;;;;22.71;68.71;100343.50;4536938;28;20038;-63
2023/09/17 09:48:13;;;;;;;2.22;2.03;;;;;;;22.70;69.07;100341.84;4539890;28;20486;-63
2023/09/17 09:50:25;;;;;;;2.33;2.00;;;;;;;22.71;69.14;100346.38;4530371;28;20037;-63
2023/09/17 09:52:37;;;;;;;2.47;2.10;;;;;;;22.72;69.44;100339.41;4519452;28;20141;-63
2023/09/17 09:54:47;;;;;;;2.05;1.85;;;;;;;22.70;69.46;100336.09;4499943;28;20531;-63
2023/09/17 09:56:58;;;;;;;2.10;1.88;;;;;;;22.68;69.21;100332.75;4514391;28;20034;-63
2023/09/17 09:59:08;;;;;;;2.30;1.92;;;;;;;22.68;69.16;100336.47;4537444;28;20616;-63
2023/09/17 10:01:19;;;;;;;2.33;1.92;;;;;;;22.69;69.64;100335.25;4538688;28;20037;-63
2023/09/17 10:03:30;;;;;;;2.88;1.90;;;;;;;22.73;70.16;100341.91;4543020;28;20112;-63
2023/09/17 10:05:40;;;;;;;2.40;1.98;;;;;;;22.68;69.34;100332.75;4540491;28;20037;-63
2023/09/17 10:07:52;;;;;;;2.00;1.70;;;;;;;22.67;68.86;100331.94;4541567;28;20573;-63
2023/09/17 10:10:02;;;;;;;2.35;2.15;;;;;;;22.71;68.37;100343.50;4522169;28;20325;-63